createdAt,value
2018-10-19T00:02:01.469Z,70.32
2018-10-19T00:04:29.967Z,70.61
2018-10-19T00:06:58.435Z,70.12
2018-10-19T00:09:26.909Z,70.31
2018-10-19T00:11:55.387Z,69.87
2018-10-19T00:14:23.862Z,70.60
2018-10-19T00:16:52.594Z,70.17
2018-10-19T00:19:21.076Z,70.09
2018-10-19T00:21:49.605Z,69.85
2018-10-19T00:24:18.090Z,70.77
2018-10-19T00:26:46.567Z,70.20
2018-10-19T00:29:15.149Z,70.55
2018-10-19T00:31:43.663Z,70.71
2018-10-19T00:34:12.147Z,70.56
2018-10-19T00:36:40.669Z,70.06
2018-10-19T00:39:10.775Z,70.13
2018-10-19T00:41:39.254Z,70.00
2018-10-19T00:44:07.944Z,70.55
2018-10-19T00:46:36.463Z,69.95
2018-10-19T00:49:05.179Z,70.33
2018-10-19T00:51:33.657Z,70.26
2018-10-19T00:54:02.131Z,69.92
2018-10-19T00:56:30.598Z,70.02
2018-10-19T00:58:59.127Z,69.94
2018-10-19T01:01:27.619Z,70.33
2018-10-19T01:03:56.100Z,69.57
2018-10-19T01:06:24.567Z,69.19
2018-10-19T01:08:53.063Z,69.21
2018-10-19T01:11:21.563Z,69.17
2018-10-19T01:13:50.029Z,68.89
2018-10-19T01:16:18.516Z,68.70
2018-10-19T01:18:46.975Z,69.25
2018-10-19T01:21:15.550Z,68.68
2018-10-19T01:23:43.969Z,68.85
2018-10-19T01:26:12.446Z,68.69
2018-10-19T01:28:40.928Z,69.31
2018-10-19T01:31:09.413Z,68.92
2018-10-19T01:33:37.891Z,69.42
2018-10-19T01:36:07.340Z,68.97
2018-10-19T01:38:36.161Z,68.98
2018-10-19T01:41:04.655Z,69.32
2018-10-19T01:43:33.139Z,69.44
2018-10-19T01:46:01.624Z,69.53
2018-10-19T01:48:30.104Z,68.97
2018-10-19T01:50:59.155Z,68.68
2018-10-19T01:53:27.927Z,68.97
2018-10-19T01:55:56.414Z,68.79
2018-10-19T01:58:24.895Z,68.48
2018-10-19T02:00:53.370Z,69.43
2018-10-19T02:03:21.883Z,68.89
2018-10-19T02:05:50.377Z,69.00
2018-10-19T02:08:18.912Z,69.23
2018-10-19T02:10:47.379Z,69.01
2018-10-19T02:13:15.842Z,69.33
2018-10-19T02:15:44.316Z,69.42
2018-10-19T02:18:12.801Z,69.44
2018-10-19T02:20:41.295Z,69.58
2018-10-19T02:23:09.793Z,69.17
2018-10-19T02:25:38.276Z,69.37
2018-10-19T02:28:06.766Z,69.28
2018-10-19T02:30:35.294Z,69.57
2018-10-19T02:33:03.797Z,69.77
2018-10-19T02:35:32.264Z,70.28
2018-10-19T02:38:00.764Z,70.27
2018-10-19T02:40:29.311Z,70.07
2018-10-19T02:42:57.791Z,69.42
2018-10-19T02:45:26.267Z,69.94
2018-10-19T02:47:54.747Z,69.94
2018-10-19T02:50:23.240Z,69.88
2018-10-19T02:52:51.711Z,69.73
2018-10-19T02:55:20.206Z,69.88
2018-10-19T02:57:48.679Z,69.76
2018-10-19T03:00:17.157Z,69.98
2018-10-19T03:02:45.634Z,70.39
2018-10-19T03:05:14.188Z,70.28
2018-10-19T03:07:42.682Z,70.44
2018-10-19T03:10:11.155Z,69.82
2018-10-19T03:12:39.630Z,69.97
2018-10-19T03:15:08.705Z,70.06
2018-10-19T03:17:37.240Z,70.52
2018-10-19T03:20:07.311Z,69.62
2018-10-19T03:22:36.003Z,69.86
2018-10-19T03:25:04.479Z,69.66
2018-10-19T03:27:32.951Z,69.74
2018-10-19T03:30:01.440Z,69.61
2018-10-19T03:32:29.924Z,70.32
2018-10-19T03:34:58.470Z,69.99
2018-10-19T03:37:26.942Z,70.04
2018-10-19T03:39:55.405Z,70.24
2018-10-19T03:42:23.884Z,69.86
2018-10-19T03:44:52.382Z,69.88
2018-10-19T03:47:20.856Z,70.25
2018-10-19T03:49:49.343Z,70.16
2018-10-19T03:52:17.847Z,69.98
2018-10-19T03:54:46.334Z,70.23
2018-10-19T03:57:14.901Z,69.83
2018-10-19T03:59:43.311Z,70.11
2018-10-19T04:02:11.799Z,69.97
2018-10-19T04:04:40.313Z,69.62
2018-10-19T04:07:08.782Z,69.66
2018-10-19T04:09:37.267Z,69.58
2018-10-19T04:12:06.198Z,70.49
2018-10-19T04:14:34.679Z,69.75
2018-10-19T04:17:03.192Z,69.96
2018-10-19T04:19:31.671Z,69.79
2018-10-19T04:22:00.144Z,69.59
2018-10-19T04:24:28.631Z,69.87
2018-10-19T04:26:57.106Z,69.78
2018-10-19T04:29:25.593Z,69.75
2018-10-19T04:31:54.101Z,69.65
2018-10-19T04:34:22.580Z,69.63
2018-10-19T04:36:51.073Z,69.31
2018-10-19T04:39:19.551Z,69.55
2018-10-19T04:41:48.243Z,69.42
2018-10-19T04:44:16.637Z,69.45
2018-10-19T04:46:45.111Z,69.41
2018-10-19T04:49:13.597Z,69.49
2018-10-19T04:51:42.070Z,70.19
2018-10-19T04:54:10.543Z,69.65
2018-10-19T04:56:39.064Z,69.62
2018-10-19T04:59:07.633Z,69.38
2018-10-19T05:01:36.104Z,69.99
2018-10-19T05:04:04.600Z,69.93
2018-10-19T05:06:33.123Z,69.94
2018-10-19T05:09:01.648Z,69.41
2018-10-19T05:11:30.130Z,69.43
2018-10-19T05:13:58.639Z,69.75
2018-10-19T05:16:27.106Z,69.30
2018-10-19T05:18:55.595Z,69.79
2018-10-19T05:21:24.070Z,69.36
2018-10-19T05:23:52.568Z,69.75
2018-10-19T05:26:21.095Z,69.80
2018-10-19T05:28:49.586Z,69.83
2018-10-19T05:31:18.120Z,70.00
2018-10-19T05:33:46.597Z,69.85
2018-10-19T05:36:15.144Z,69.89
2018-10-19T05:38:43.634Z,69.56
2018-10-19T05:41:12.155Z,69.24
2018-10-19T05:43:40.638Z,69.25
2018-10-19T05:46:09.137Z,69.20
2018-10-19T05:48:37.726Z,69.06
2018-10-19T05:51:06.199Z,69.64
2018-10-19T05:53:34.712Z,69.07
2018-10-19T05:56:03.249Z,69.46
2018-10-19T05:58:31.941Z,69.18
2018-10-19T06:01:00.416Z,69.79
2018-10-19T06:03:28.895Z,69.04
2018-10-19T06:05:57.370Z,69.22
2018-10-19T06:08:25.843Z,69.40
2018-10-19T06:10:54.374Z,69.36
2018-10-19T06:13:22.831Z,69.39
2018-10-19T06:15:51.326Z,69.17
2018-10-19T06:18:19.816Z,69.60
2018-10-19T06:20:48.295Z,69.56
2018-10-19T06:23:16.834Z,69.47
2018-10-19T06:25:45.283Z,68.89
2018-10-19T06:28:13.767Z,69.47
2018-10-19T06:30:42.251Z,68.85
2018-10-19T06:33:10.743Z,68.75
2018-10-19T06:35:39.234Z,69.42
2018-10-19T06:38:07.958Z,69.51
2018-10-19T06:40:36.512Z,69.02
2018-10-19T06:43:04.934Z,69.04
2018-10-19T06:45:33.431Z,69.77
2018-10-19T06:48:01.928Z,69.16
2018-10-19T06:50:30.418Z,69.80
2018-10-19T06:52:58.899Z,69.05
2018-10-19T06:55:27.400Z,69.13
2018-10-19T06:57:55.885Z,69.12
2018-10-19T07:00:24.363Z,69.39
2018-10-19T07:02:52.868Z,69.08
2018-10-19T07:05:21.347Z,69.70
2018-10-19T07:07:49.880Z,69.05
2018-10-19T07:10:18.323Z,69.54
2018-10-19T07:12:46.840Z,68.93
2018-10-19T07:15:15.308Z,69.22
2018-10-19T07:17:43.814Z,68.87
2018-10-19T07:20:12.439Z,68.74
2018-10-19T07:22:40.929Z,69.23
2018-10-19T07:25:09.732Z,69.54
2018-10-19T07:27:38.216Z,69.88
2018-10-19T07:30:07.074Z,69.71
2018-10-19T07:32:35.568Z,69.10
2018-10-19T07:35:04.077Z,69.82
2018-10-19T07:37:32.573Z,69.79
2018-10-19T07:40:01.041Z,69.65
2018-10-19T07:42:29.520Z,68.88
2018-10-19T07:44:58.020Z,69.44
2018-10-19T07:47:26.514Z,68.98
2018-10-19T07:49:55.032Z,69.05
2018-10-19T07:52:23.513Z,69.52
2018-10-19T07:54:52.189Z,69.06
2018-10-19T07:57:20.659Z,69.61
2018-10-19T07:59:49.129Z,69.59
2018-10-19T08:02:17.715Z,69.60
2018-10-19T08:04:46.199Z,69.88
2018-10-19T08:07:14.691Z,69.87
2018-10-19T08:09:43.154Z,69.34
2018-10-19T08:12:11.651Z,69.41
2018-10-19T08:14:40.123Z,69.85
2018-10-19T08:17:08.670Z,69.43
2018-10-19T08:19:37.119Z,69.73
2018-10-19T08:22:05.642Z,69.73
2018-10-19T08:24:34.128Z,69.77
2018-10-19T08:27:02.611Z,69.86
2018-10-19T08:29:31.074Z,69.97
2018-10-19T08:31:59.606Z,70.00
2018-10-19T08:34:28.068Z,69.28
2018-10-19T08:36:56.624Z,69.44
2018-10-19T08:39:25.119Z,69.36
2018-10-19T08:41:53.596Z,69.97
2018-10-19T08:44:22.706Z,69.86
2018-10-19T08:46:51.219Z,69.56
2018-10-19T08:49:19.678Z,69.58
2018-10-19T08:51:48.155Z,69.40
2018-10-19T08:54:16.630Z,69.53
2018-10-19T08:56:45.110Z,69.57
2018-10-19T08:59:13.669Z,69.60
2018-10-19T09:01:42.116Z,69.98
2018-10-19T09:04:10.644Z,69.53
2018-10-19T09:06:39.095Z,69.37
2018-10-19T09:09:09.971Z,69.88
2018-10-19T09:11:38.805Z,69.57
2018-10-19T09:14:18.539Z,69.46
2018-10-19T09:16:47.444Z,69.46
2018-10-19T09:19:15.953Z,69.79
2018-10-19T09:21:44.467Z,69.91
2018-10-19T09:24:13.279Z,69.56
2018-10-19T09:26:42.875Z,69.94
2018-10-19T09:29:11.742Z,70.20
2018-10-19T09:31:40.175Z,69.61
2018-10-19T09:34:08.702Z,69.57
2018-10-19T09:36:37.294Z,69.66
2018-10-19T09:39:08.887Z,69.86
2018-10-19T09:41:37.307Z,69.72
2018-10-19T09:44:05.808Z,70.21
2018-10-19T09:46:34.566Z,69.98
2018-10-19T09:49:03.088Z,69.71
2018-10-19T09:51:31.533Z,69.77
2018-10-19T09:54:00.009Z,69.65
2018-10-19T09:56:28.503Z,69.60
2018-10-19T09:58:57.851Z,70.43
2018-10-19T10:01:28.670Z,69.78
2018-10-19T10:03:57.162Z,70.22
2018-10-19T10:06:25.630Z,69.86
2018-10-19T10:08:54.122Z,69.93
2018-10-19T10:11:22.603Z,70.02
2018-10-19T10:13:51.396Z,69.88
2018-10-19T10:16:20.191Z,69.81
2018-10-19T10:18:48.670Z,69.68
2018-10-19T10:21:17.295Z,69.88
2018-10-19T10:23:45.763Z,69.99
2018-10-19T10:26:14.731Z,69.79
2018-10-19T10:28:43.276Z,70.41
2018-10-19T10:31:11.764Z,70.28
2018-10-19T10:33:40.249Z,70.41
2018-10-19T10:36:08.736Z,70.39
2018-10-19T10:38:37.216Z,70.01
2018-10-19T10:41:05.798Z,69.91
2018-10-19T10:43:34.276Z,70.43
2018-10-19T10:46:02.808Z,70.50
2018-10-19T10:48:31.279Z,69.93
2018-10-19T10:50:59.769Z,70.35
2018-10-19T10:53:28.256Z,70.09
2018-10-19T10:55:56.733Z,70.16
2018-10-19T10:58:25.214Z,70.37
2018-10-19T11:00:53.750Z,69.87
2018-10-19T11:03:22.216Z,70.33
2018-10-19T11:05:50.683Z,70.00
2018-10-19T11:08:19.155Z,69.92
2018-10-19T11:10:47.728Z,70.20
2018-10-19T11:13:16.204Z,69.99
2018-10-19T11:15:44.682Z,70.14
2018-10-19T11:18:13.167Z,70.13
2018-10-19T11:20:41.651Z,70.20
2018-10-19T11:23:10.124Z,70.46
2018-10-19T11:25:38.613Z,70.21
2018-10-19T11:28:07.174Z,70.10
2018-10-19T11:30:35.622Z,70.66
2018-10-19T11:33:04.106Z,70.49
2018-10-19T11:35:32.612Z,70.16
2018-10-19T11:38:01.180Z,70.25
2018-10-19T11:40:34.003Z,69.74
2018-10-19T11:43:02.537Z,70.11
2018-10-19T11:45:32.264Z,70.01
2018-10-19T11:48:00.788Z,70.76
2018-10-19T11:50:29.428Z,70.73
2018-10-19T11:52:57.927Z,70.72
2018-10-19T11:55:26.407Z,70.36
2018-10-19T11:57:54.916Z,70.33
2018-10-19T12:00:23.462Z,70.32
2018-10-19T12:02:51.942Z,70.37
2018-10-19T12:05:20.478Z,70.66
2018-10-19T12:07:48.949Z,70.92
2018-10-19T12:10:17.470Z,70.54
2018-10-19T12:12:45.924Z,70.76
2018-10-19T12:15:15.699Z,70.77
2018-10-19T12:17:44.771Z,70.80
2018-10-19T12:20:15.603Z,70.56
2018-10-19T12:22:44.124Z,70.29
2018-10-19T12:25:13.604Z,70.25
2018-10-19T12:27:42.386Z,70.81
2018-10-19T12:30:11.571Z,70.31
2018-10-19T12:32:40.367Z,70.91
2018-10-19T12:35:10.922Z,70.51
2018-10-19T12:37:39.431Z,70.39
2018-10-19T12:40:08.793Z,70.55
2018-10-19T12:42:37.775Z,70.21
2018-10-19T12:45:11.283Z,70.38
2018-10-19T12:47:41.702Z,70.35
2018-10-19T12:50:10.187Z,70.87
2018-10-19T12:52:38.679Z,70.35
2018-10-19T12:55:08.647Z,70.76
2018-10-19T12:57:37.168Z,70.76
2018-10-19T13:00:06.776Z,70.88
2018-10-19T13:02:35.268Z,70.42
2018-10-19T13:05:03.738Z,71.00
2018-10-19T13:07:32.219Z,70.99
2018-10-19T13:10:00.790Z,71.08
2018-10-19T13:12:29.194Z,70.90
2018-10-19T13:14:57.714Z,70.93
2018-10-19T13:17:26.221Z,70.47
2018-10-19T13:19:54.721Z,70.70
2018-10-19T13:22:23.212Z,70.37
2018-10-19T13:24:51.697Z,70.47
2018-10-19T13:27:20.242Z,70.60
2018-10-19T13:29:48.727Z,70.60
2018-10-19T13:32:17.237Z,70.41
2018-10-19T13:34:45.716Z,71.08
2018-10-19T13:37:14.193Z,70.47
2018-10-19T13:39:42.668Z,71.13
2018-10-19T13:42:11.158Z,70.69
2018-10-19T13:44:39.984Z,70.43
2018-10-19T13:47:08.519Z,70.80
2018-10-19T13:49:36.971Z,70.94
2018-10-19T13:52:05.566Z,70.58
2018-10-19T13:54:34.054Z,70.50
2018-10-19T13:57:02.600Z,71.16
2018-10-19T13:59:31.045Z,70.47
2018-10-19T14:01:59.522Z,70.52
2018-10-19T14:04:27.993Z,70.54
2018-10-19T14:06:56.521Z,70.73
2018-10-19T14:09:24.987Z,70.43
2018-10-19T14:11:53.476Z,70.83
2018-10-19T14:14:21.957Z,70.43
2018-10-19T14:16:50.591Z,70.92
2018-10-19T14:19:19.191Z,71.02
2018-10-19T14:21:47.586Z,70.40
2018-10-19T14:24:16.063Z,70.63
2018-10-19T14:26:44.680Z,70.67
2018-10-19T14:29:13.149Z,70.50
2018-10-19T14:31:41.613Z,70.52
2018-10-19T14:34:10.096Z,71.00
2018-10-19T14:36:38.583Z,71.13
2018-10-19T14:39:07.379Z,70.87
2018-10-19T14:41:35.835Z,71.02
2018-10-19T14:44:04.338Z,70.60
2018-10-19T14:46:32.825Z,71.10
2018-10-19T14:49:01.338Z,70.78
2018-10-19T14:51:29.867Z,71.11
2018-10-19T14:53:58.370Z,71.01
2018-10-19T14:56:26.844Z,71.16
2018-10-19T14:58:55.343Z,70.62
2018-10-19T15:01:23.835Z,71.06
2018-10-19T15:03:52.816Z,71.18
2018-10-19T15:06:21.291Z,70.70
2018-10-19T15:08:49.776Z,70.40
2018-10-19T15:11:18.547Z,71.10
2018-10-19T15:13:46.785Z,70.77
2018-10-19T15:16:15.269Z,70.78
2018-10-19T15:18:43.750Z,70.63
2018-10-19T15:21:12.285Z,70.81
2018-10-19T15:23:40.732Z,70.72
2018-10-19T15:26:09.225Z,70.70
2018-10-19T15:28:37.765Z,70.68
2018-10-19T15:31:06.417Z,70.61
2018-10-19T15:33:34.896Z,71.02
2018-10-19T15:36:03.449Z,70.41
2018-10-19T15:38:31.891Z,70.96
2018-10-19T15:41:00.394Z,71.18
2018-10-19T15:43:28.899Z,71.05
2018-10-19T15:45:57.366Z,70.71
2018-10-19T15:48:25.843Z,71.41
2018-10-19T15:50:54.372Z,71.18
2018-10-19T15:53:22.843Z,70.93
2018-10-19T15:55:51.342Z,71.02
2018-10-19T15:58:19.836Z,70.82
2018-10-19T16:00:49.329Z,70.69
2018-10-19T16:03:17.811Z,71.25
2018-10-19T16:05:46.294Z,71.42
2018-10-19T16:08:14.786Z,70.68
2018-10-19T16:10:43.273Z,70.95
2018-10-19T16:13:11.765Z,71.28
2018-10-19T16:15:40.300Z,70.84
2018-10-19T16:18:08.826Z,70.78
2018-10-19T16:20:37.283Z,71.10
2018-10-19T16:23:06.150Z,70.90
2018-10-19T16:25:34.735Z,70.76
2018-10-19T16:28:03.262Z,71.26
2018-10-19T16:30:31.777Z,71.44
2018-10-19T16:33:00.300Z,70.99
2018-10-19T16:35:28.788Z,71.10
2018-10-19T16:37:57.267Z,71.33
2018-10-19T16:40:25.757Z,71.15
2018-10-19T16:42:54.256Z,71.66
2018-10-19T16:45:22.726Z,70.93
2018-10-19T16:47:51.216Z,70.91
2018-10-19T16:50:19.726Z,70.90
2018-10-19T16:52:48.239Z,70.93
2018-10-19T16:55:16.714Z,71.02
2018-10-19T16:57:45.188Z,71.80
2018-10-19T17:00:13.739Z,70.89
2018-10-19T17:02:42.179Z,71.49
2018-10-19T17:05:10.752Z,71.00
2018-10-19T17:07:39.175Z,71.03
2018-10-19T17:10:08.246Z,71.19
2018-10-19T17:12:36.764Z,71.47
2018-10-19T17:15:05.407Z,71.27
2018-10-19T17:17:33.954Z,71.25
2018-10-19T17:20:02.435Z,70.98
2018-10-19T17:22:30.924Z,71.24
2018-10-19T17:24:59.407Z,71.52
2018-10-19T17:27:27.882Z,71.17
2018-10-19T17:29:56.357Z,71.21
2018-10-19T17:32:24.847Z,71.04
2018-10-19T17:34:53.329Z,71.64
2018-10-19T17:37:21.834Z,70.94
2018-10-19T17:39:50.898Z,71.47
2018-10-19T17:42:19.412Z,71.59
2018-10-19T17:44:47.915Z,70.89
2018-10-19T17:47:16.427Z,71.48
2018-10-19T17:49:44.930Z,71.02
2018-10-19T17:52:13.406Z,71.34
2018-10-19T17:54:41.894Z,71.01
2018-10-19T17:57:10.486Z,71.81
2018-10-19T17:59:38.943Z,71.21
2018-10-19T18:02:07.424Z,70.89
2018-10-19T18:04:35.946Z,70.81
2018-10-19T18:07:04.407Z,71.54
2018-10-19T18:09:32.979Z,70.87
2018-10-19T18:12:01.419Z,71.44
2018-10-19T18:14:29.906Z,70.79
2018-10-19T18:16:58.453Z,71.28
2018-10-19T18:19:26.892Z,71.67
2018-10-19T18:21:55.523Z,71.26
2018-10-19T18:24:26.917Z,71.41
2018-10-19T18:26:55.432Z,71.57
2018-10-19T18:29:23.883Z,71.26
2018-10-19T18:31:52.395Z,71.10
2018-10-19T18:34:21.220Z,71.26
2018-10-19T18:36:49.691Z,71.40
2018-10-19T18:39:18.164Z,71.47
2018-10-19T18:41:46.631Z,71.55
2018-10-19T18:44:15.189Z,71.17
2018-10-19T18:46:43.611Z,71.14
2018-10-19T18:49:12.084Z,71.35
2018-10-19T18:51:40.571Z,70.61
2018-10-19T18:54:09.055Z,70.78
2018-10-19T18:56:37.532Z,70.98
2018-10-19T18:59:06.110Z,70.39
2018-10-19T19:01:34.518Z,70.24
2018-10-19T19:04:03.003Z,70.24
2018-10-19T19:06:31.458Z,70.21
2018-10-19T19:08:59.949Z,70.73
2018-10-19T19:11:28.426Z,70.75
2018-10-19T19:13:56.960Z,70.42
2018-10-19T19:16:30.619Z,70.39
2018-10-19T19:18:59.098Z,70.73
2018-10-19T19:21:27.597Z,70.10
2018-10-19T19:24:01.419Z,70.80
2018-10-19T19:26:29.899Z,70.69
2018-10-19T19:28:58.711Z,70.29
2018-10-19T19:31:27.171Z,70.66
2018-10-19T19:34:00.887Z,70.40
2018-10-19T19:36:29.376Z,70.34
2018-10-19T19:38:57.862Z,70.56
2018-10-19T19:41:31.666Z,70.73
2018-10-19T19:44:00.196Z,70.46
2018-10-19T19:46:28.738Z,70.55
2018-10-19T19:49:02.596Z,70.71
2018-10-19T19:51:31.054Z,70.36
2018-10-19T19:53:59.540Z,70.47
2018-10-19T19:56:28.014Z,70.42
2018-10-19T19:58:56.499Z,70.40
2018-10-19T20:01:24.992Z,70.55
2018-10-19T20:03:53.499Z,70.65
2018-10-19T20:06:22.088Z,71.00
2018-10-19T20:08:50.505Z,71.37
2018-10-19T20:11:18.971Z,71.09
2018-10-19T20:13:47.487Z,71.10
2018-10-19T20:16:15.966Z,70.51
2018-10-19T20:18:44.520Z,70.68
2018-10-19T20:21:13.035Z,70.57
2018-10-19T20:23:41.507Z,70.72
2018-10-19T20:26:10.128Z,70.60
2018-10-19T20:28:38.480Z,71.16
2018-10-19T20:31:06.963Z,70.70
2018-10-19T20:33:35.443Z,71.22
2018-10-19T20:36:03.921Z,71.18
2018-10-19T20:38:32.408Z,70.90
2018-10-19T20:41:01.002Z,71.01
2018-10-19T20:43:29.452Z,70.57
2018-10-19T20:45:57.933Z,71.15
2018-10-19T20:48:26.406Z,71.21
2018-10-19T20:50:54.883Z,70.68
2018-10-19T20:53:23.363Z,70.69
2018-10-19T20:55:51.890Z,71.33
2018-10-19T20:58:20.324Z,70.62
2018-10-19T21:00:48.888Z,71.21
2018-10-19T21:03:17.303Z,71.46
2018-10-19T21:05:45.796Z,70.96
2018-10-19T21:08:14.327Z,70.84
2018-10-19T21:10:42.976Z,71.41
2018-10-19T21:13:11.450Z,71.34
2018-10-19T21:15:39.940Z,70.99
2018-10-19T21:18:08.420Z,70.92
2018-10-19T21:20:36.929Z,70.84
2018-10-19T21:23:05.489Z,70.80
2018-10-19T21:25:33.932Z,71.38
2018-10-19T21:28:02.427Z,70.96
2018-10-19T21:30:30.912Z,71.53
2018-10-19T21:32:59.373Z,71.53
2018-10-19T21:35:27.852Z,71.59
2018-10-19T21:37:56.409Z,70.99
2018-10-19T21:40:24.849Z,71.46
2018-10-19T21:42:53.323Z,70.89
2018-10-19T21:45:21.805Z,71.51
2018-10-19T21:47:50.296Z,71.07
2018-10-19T21:50:22.012Z,71.17
2018-10-19T21:52:51.747Z,71.43
2018-10-19T21:55:20.266Z,71.30
2018-10-19T21:57:48.723Z,71.29
2018-10-19T22:00:17.292Z,71.33
2018-10-19T22:02:45.767Z,71.13
2018-10-19T22:05:14.290Z,70.85
2018-10-19T22:07:42.822Z,71.36
2018-10-19T22:10:11.240Z,71.35
2018-10-19T22:12:39.743Z,71.33
2018-10-19T22:15:08.811Z,70.89
2018-10-19T22:17:37.360Z,70.93
2018-10-19T22:20:05.967Z,70.98
2018-10-19T22:22:34.460Z,71.13
2018-10-19T22:25:03.181Z,70.94
2018-10-19T22:27:31.645Z,70.92
2018-10-19T22:30:00.141Z,70.96
2018-10-19T22:32:28.635Z,71.29
2018-10-19T22:34:57.136Z,71.25
2018-10-19T22:37:25.610Z,70.74
2018-10-19T22:39:54.103Z,70.68
2018-10-19T22:42:22.571Z,71.24
2018-10-19T22:44:51.420Z,70.81
2018-10-19T22:47:19.894Z,70.98
2018-10-19T22:49:48.381Z,71.51
2018-10-19T22:52:16.856Z,71.53
2018-10-19T22:54:45.322Z,70.97
2018-10-19T22:57:13.837Z,71.05
2018-10-19T22:59:42.323Z,71.43
2018-10-19T23:02:10.804Z,71.50
2018-10-19T23:04:39.278Z,71.32
2018-10-19T23:07:07.803Z,70.83
2018-10-19T23:09:36.268Z,71.45
2018-10-19T23:12:04.755Z,70.72
2018-10-19T23:14:33.247Z,71.17
2018-10-19T23:17:01.781Z,71.03
2018-10-19T23:19:30.268Z,70.56
2018-10-19T23:21:58.726Z,71.27
2018-10-19T23:24:27.219Z,70.88
2018-10-19T23:26:55.723Z,71.43
2018-10-19T23:29:24.202Z,71.05
2018-10-19T23:31:52.689Z,71.30
2018-10-19T23:34:21.222Z,70.88
2018-10-19T23:36:49.713Z,70.80
2018-10-19T23:39:18.200Z,70.67
2018-10-19T23:41:46.703Z,70.53
2018-10-19T23:44:15.200Z,70.63
2018-10-19T23:46:43.703Z,70.83
2018-10-19T23:49:12.224Z,70.70
2018-10-19T23:51:40.696Z,70.93
2018-10-19T23:54:09.166Z,70.33
2018-10-19T23:56:37.647Z,70.39
2018-10-19T23:59:06.278Z,70.91
